Pauma Valley, CA (92061)

2:05 AM PDT en Agosto 28, 2014 (GMT -0700)
Pauma Heights | Change Station
CLOSE
Current Station
Estación meteorológica personal
Location: Valley Center, CA
Altura: 1565 ft
Estaciones meteorológicas cercanas

Alt 1565 ft 33.28 °N, 117.02 °W | Updated 11 seconds ago

Despejado
Despejado
70.7 ° F
Sensación térmica 77 ° F
N
0.0
Viento Variable Viento desde Norte
Gusts 1.0 mph

Hoy
Alta -- | Baja -- ° F
--% Posibilidad de precipitaciones
Ayer
Alta -- | Baja -- ° F
Precip. -- pul
6:19 AM 7:18 PM
Creciente, 7% visible
Presión 30.00 pul
Visibilidad 10.0 Millas
Nubes Despejado
Índice de calor 77 ° F
Punto de rocío 52 ° F
Humedad 52%
Precipitaciones 0.00 pul
Espesor de la nieve No disponible.
UV 0 de una escala de 12
Polen 6.80 de una escala de 12
Ozono Buena
PM2.5 Buena
Flu Activity No disponible.
METAR KRNM 280853Z 00000KT 10SM CLR 18/06 A3005 RMK AO2 SLP159 T01780061 56001

More Conditions Fewer Conditions

Presión 30.00 pul
Visibilidad 10.0 Millas
Nubes Despejado
Índice de calor 77 ° F
Punto de rocío 52 ° F
Humedad 52%
Precipitaciones 0.00 pul
Espesor de la nieve No disponible.
UV 0 de una escala de 12
Polen 6.80 de una escala de 12
Ozono Buena
PM2.5 Buena
Flu Activity No disponible.
METAR KRNM 280853Z 00000KT 10SM CLR 18/06 A3005 RMK AO2 SLP159 T01780061 56001

More Conditions Fewer Conditions

10-Day Weather Forecast

Almanac

Astronomía

Aug. 28, 2014 Salida Puesta
Hora real 6:19 AM PDT 7:18 PM PDT
Crepúsculo civil 5:53 AM PDT 7:43 PM PDT
Crepúsculo náutico 5:23 AM PDT 8:13 PM PDT
Crepúsculo astronómico 4:52 AM PDT 8:44 PM PDT
Luna 9:05 AM PDT 8:56 PM PDT
Horas de luz 13h 49m
Horas de luz
12h 58m
Tomorrow will be 1m 57s shorter.
Creciente, 7% of the Moon is Illuminated
Hoy
Creciente
Sep 2
Cuarto creciente
Sep 8
Luna llena
Sep 15
Cuarto menguante
Sep 24
Nueva

Extremos de hoy

Máximos del estado Bajos del estado

Community

WunderPhotos

Upload Photos

1,747,918 ¡fotos cargadas!

Nearby

Calidad del aire

  Calidad del aire Índice AQ Contaminante
Ayer Buena
PM2.5
Real Buena
PM2.5
Real Buena
OZONE
Jueves Moderada
OZONE
Jueves Buena
PM2.5

Grosos de nieve

Estación Profundido Altura
Leavitt Lake 1 in 9400 ft
Leavitt Meadows 1 in 7200 ft
Summit Meadow 1 in 9122 ft
Monitor Pass 0 in 8350 ft
Blue Lakes 0 in 8000 ft

Actividad de terremotos

Ciudad Distance Mag. Tiempo y dato
San Fernando, California 105 Millas 2.5 4:57 AM PDT
2014-08-26
Progreso, Mexico 89 Millas 2.6 10:55 PM PDT
2014-08-25
Maneadero, Mexico 116 Millas 2.8 1:03 PM PDT
2014-08-25
Magnitud mínima muestra es 2,5.

Temperaturas de aguas costeras

Lugar Temperatura
La Jolla, CA 73.0 ° F
San Diego, CA 73.9 ° F

Estaciones meteorológicas cercanas